Time;durP1;ratioP1;P1;durP2;ratioP2;P2;SDS_P1;SDS_P2;PMS_P1;PMS_P2;Temp;Humidity;BMP_temperature;BMP_pressure;BME280_temperature;BME280_humidity;BME280_pressure;Samples;Min_cycle;Max_cycle;Signal;HPM_P1;HPM_P2
2022/01/20 00:00:20;;;;;;;12.20;1.90;;;3.90;99.90;;;;;;4954963;28;20173;-70
2022/01/20 00:02:58;;;;;;;7.00;1.73;;;3.90;99.90;;;;;;4955198;28;20176;-70
2022/01/20 00:05:34;;;;;;;14.97;1.90;;;3.90;99.90;;;;;;4947473;28;20181;-70
2022/01/20 00:26:56;;;;;;;13.97;1.73;;;4.00;99.90;;;;;;4955035;28;20223;-70
2022/01/20 00:29:29;;;;;;;10.53;2.07;;;3.90;99.90;;;;;;4954881;28;20199;-70
2022/01/20 00:37:20;;;;;;;8.90;1.80;;;3.80;99.90;;;;;;4949380;28;20176;-69
2022/01/20 00:39:47;;;;;;;5.63;1.70;;;3.80;99.90;;;;;;4954489;28;20257;-69
2022/01/20 00:42:14;;;;;;;10.53;1.77;;;3.90;99.90;;;;;;4954278;29;20263;-67
2022/01/20 00:44:40;;;;;;;12.03;1.87;;;3.80;99.90;;;;;;4953945;28;20189;-69
2022/01/20 00:47:06;;;;;;;8.43;1.87;;;3.80;99.90;;;;;;4954928;28;20192;-69
2022/01/20 00:49:32;;;;;;;7.13;1.60;;;3.80;99.90;;;;;;4954123;28;20187;-69
2022/01/20 00:51:57;;;;;;;7.70;1.87;;;3.70;99.90;;;;;;4947224;28;20216;-67
2022/01/20 00:54:23;;;;;;;15.33;1.90;;;3.70;99.90;;;;;;4953912;28;20525;-69
2022/01/20 00:56:49;;;;;;;10.47;2.13;;;3.70;99.90;;;;;;4953455;28;20356;-70
2022/01/20 00:59:15;;;;;;;6.73;1.90;;;3.60;99.90;;;;;;4943821;29;20643;-69
2022/01/20 01:01:42;;;;;;;10.57;2.07;;;3.70;99.90;;;;;;4954448;28;20177;-69
2022/01/20 01:04:08;;;;;;;12.83;1.77;;;3.70;99.90;;;;;;4953431;28;20197;-69
2022/01/20 01:06:51;;;;;;;7.23;1.57;;;3.80;99.90;;;;;;4954230;28;20255;-70
2022/01/20 01:09:17;;;;;;;11.10;1.70;;;3.80;99.90;;;;;;4954453;28;20177;-69
2022/01/20 01:11:45;;;;;;;10.53;1.93;;;3.80;99.90;;;;;;4952936;28;20235;-69
2022/01/20 01:14:12;;;;;;;15.23;2.23;;;3.80;99.90;;;;;;4952988;28;20647;-69
2022/01/20 01:20:06;;;;;;;10.57;2.10;;;3.70;99.90;;;;;;4953044;28;20267;-70
2022/01/20 01:24:44;;;;;;;7.87;1.80;;;3.60;99.90;;;;;;4953970;29;20542;-67
2022/01/20 01:27:12;;;;;;;10.10;1.73;;;3.60;99.90;;;;;;4951026;28;20176;-67
2022/01/20 01:30:01;;;;;;;14.20;2.20;;;3.60;99.90;;;;;;4953654;28;20180;-68
2022/01/20 01:32:35;;;;;;;13.63;2.10;;;3.70;99.90;;;;;;4953295;28;20208;-68
2022/01/20 01:35:06;;;;;;;9.70;2.13;;;3.60;99.90;;;;;;4953797;28;20335;-67
2022/01/20 01:39:59;;;;;;;9.27;2.20;;;3.60;99.90;;;;;;4953633;28;20180;-68
2022/01/20 01:42:32;;;;;;;12.83;2.40;;;3.60;99.90;;;;;;4953367;28;20228;-69
2022/01/20 01:45:10;;;;;;;10.47;2.17;;;3.60;99.90;;;;;;4953351;28;20176;-68
2022/01/20 01:47:36;;;;;;;8.53;2.10;;;3.60;99.90;;;;;;4953142;28;20180;-60
2022/01/20 01:50:03;;;;;;;12.20;2.07;;;3.60;99.90;;;;;;4953324;29;20240;-67
2022/01/20 01:52:28;;;;;;;12.20;2.50;;;3.60;99.90;;;;;;4952878;28;20734;-66
2022/01/20 01:54:55;;;;;;;14.33;2.67;;;3.60;99.90;;;;;;4950868;28;20176;-66
2022/01/20 01:57:23;;;;;;;11.77;2.33;;;3.50;99.90;;;;;;4953171;28;20192;-65
2022/01/20 01:59:50;;;;;;;16.03;3.07;;;3.50;99.90;;;;;;4953109;28;20176;-66
2022/01/20 02:02:15;;;;;;;14.90;2.53;;;3.50;99.90;;;;;;4953131;28;20204;-66
2022/01/20 02:04:41;;;;;;;15.63;2.30;;;3.50;99.90;;;;;;4953036;29;20223;-66
2022/01/20 02:18:24;;;;;;;9.80;2.07;;;3.30;99.90;;;;;;4952754;28;20196;-65
2022/01/20 02:20:51;;;;;;;12.17;2.27;;;3.30;99.90;;;;;;4938018;28;20276;-66
2022/01/20 02:23:17;;;;;;;8.50;2.00;;;3.40;99.90;;;;;;4952450;28;20168;-66
2022/01/20 02:25:43;;;;;;;6.47;2.10;;;3.40;99.90;;;;;;4952984;29;20179;-65
2022/01/20 02:28:10;;;;;;;9.30;2.20;;;3.50;99.90;;;;;;4952628;29;20177;-65
2022/01/20 02:30:39;;;;;;;14.63;2.43;;;3.50;99.90;;;;;;4952509;28;20196;-66
2022/01/20 02:33:08;;;;;;;11.70;2.47;;;3.50;99.90;;;;;;4950567;28;20191;-66
2022/01/20 02:35:41;;;;;;;10.00;1.73;;;3.50;99.90;;;;;;4951734;28;20172;-65
2022/01/20 02:38:16;;;;;;;12.90;1.83;;;3.50;99.90;;;;;;4952579;28;20208;-66
2022/01/20 02:45:55;;;;;;;14.63;1.73;;;3.40;99.90;;;;;;4946479;29;20665;-65
2022/01/20 02:48:22;;;;;;;10.80;1.30;;;3.50;99.90;;;;;;4950786;28;20200;-65
2022/01/20 02:50:48;;;;;;;11.03;1.47;;;3.40;99.90;;;;;;4932876;29;20204;-68
2022/01/20 02:53:14;;;;;;;11.40;1.77;;;3.60;99.90;;;;;;4951997;29;20494;-66
2022/01/20 02:55:39;;;;;;;17.63;2.00;;;3.60;99.90;;;;;;4950204;28;20766;-66
2022/01/20 02:58:06;;;;;;;11.53;1.57;;;3.60;99.90;;;;;;4952022;28;20195;-67
2022/01/20 03:00:34;;;;;;;12.17;1.60;;;3.50;99.90;;;;;;4952470;28;20168;-68
2022/01/20 03:03:03;;;;;;;15.40;1.97;;;3.50;99.90;;;;;;4952424;28;20263;-67
2022/01/20 03:05:33;;;;;;;6.40;1.40;;;3.50;99.90;;;;;;4952247;28;20184;-67
2022/01/20 03:08:00;;;;;;;11.27;1.53;;;3.40;99.90;;;;;;4952184;29;20184;-67
2022/01/20 03:10:27;;;;;;;13.97;1.90;;;3.50;99.90;;;;;;4952159;28;20232;-67
2022/01/20 03:12:53;;;;;;;8.83;2.00;;;3.50;99.90;;;;;;4952355;28;20188;-67
2022/01/20 03:15:19;;;;;;;17.30;1.63;;;3.50;99.90;;;;;;4952070;29;20640;-68
2022/01/20 03:17:45;;;;;;;16.83;2.00;;;3.50;99.90;;;;;;4950870;28;20249;-67
2022/01/20 03:20:11;;;;;;;10.60;1.57;;;3.50;99.90;;;;;;4951189;28;20239;-67
2022/01/20 03:22:37;;;;;;;15.30;1.77;;;3.50;99.90;;;;;;4952331;29;20303;-69
2022/01/20 03:25:03;;;;;;;14.80;1.73;;;3.50;99.90;;;;;;4951811;28;20544;-68
2022/01/20 03:27:29;;;;;;;11.47;1.77;;;3.50;99.90;;;;;;4951382;28;20192;-68
2022/01/20 03:29:55;;;;;;;7.70;1.07;;;3.50;99.90;;;;;;4950122;28;20280;-66
2022/01/20 03:32:21;;;;;;;13.90;2.07;;;3.50;99.90;;;;;;4951262;28;20295;-67
2022/01/20 03:34:46;;;;;;;11.33;1.50;;;3.50;99.90;;;;;;4952022;28;20204;-67
2022/01/20 03:37:13;;;;;;;18.70;1.87;;;3.50;99.90;;;;;;4951999;28;20617;-67
2022/01/20 03:39:38;;;;;;;12.40;1.90;;;3.60;99.90;;;;;;4951806;28;20620;-68
2022/01/20 03:42:05;;;;;;;9.07;1.70;;;3.60;99.90;;;;;;4951973;29;20192;-67
2022/01/20 03:44:30;;;;;;;12.07;1.80;;;3.60;99.90;;;;;;4951725;28;20239;-67
2022/01/20 03:47:00;;;;;;;12.37;1.70;;;3.60;99.90;;;;;;4951968;29;20276;-66
2022/01/20 03:49:32;;;;;;;8.13;1.50;;;3.50;99.90;;;;;;4951329;28;20187;-68
2022/01/20 03:51:58;;;;;;;9.93;1.90;;;3.40;99.90;;;;;;4951678;28;20363;-68
2022/01/20 03:54:24;;;;;;;11.87;1.87;;;3.40;99.90;;;;;;4951649;28;20695;-67
2022/01/20 03:56:50;;;;;;;15.93;2.07;;;3.30;99.90;;;;;;4949840;29;20318;-68
2022/01/20 03:59:16;;;;;;;13.60;2.20;;;3.30;99.90;;;;;;4951713;28;20183;-67
2022/01/20 04:01:42;;;;;;;10.67;1.40;;;3.20;99.90;;;;;;4951801;28;20687;-67
2022/01/20 04:04:08;;;;;;;8.83;1.60;;;3.10;99.90;;;;;;4951604;28;20192;-67
2022/01/20 04:06:34;;;;;;;18.20;1.93;;;3.10;99.90;;;;;;4951681;28;20272;-67
2022/01/20 04:08:59;;;;;;;15.77;1.87;;;3.10;99.90;;;;;;4951130;28;20263;-67
2022/01/20 04:11:28;;;;;;;13.07;2.10;;;3.10;99.90;;;;;;4948568;28;20213;-68
2022/01/20 04:13:55;;;;;;;13.67;2.20;;;3.10;99.90;;;;;;4948740;28;20198;-68
2022/01/20 04:16:35;;;;;;;9.20;1.70;;;3.00;99.90;;;;;;4950718;28;20185;-67
2022/01/20 04:19:07;;;;;;;19.97;2.00;;;3.00;99.90;;;;;;4951514;28;20263;-68
2022/01/20 04:21:34;;;;;;;9.80;1.53;;;3.00;99.90;;;;;;4951546;28;20260;-68
2022/01/20 04:24:02;;;;;;;17.93;1.83;;;2.90;99.90;;;;;;4933398;28;20211;-68
2022/01/20 04:26:29;;;;;;;18.87;2.03;;;3.00;99.90;;;;;;4950695;28;20666;-68
2022/01/20 04:28:56;;;;;;;12.90;1.50;;;3.00;99.90;;;;;;4951584;28;20181;-68
2022/01/20 04:31:23;;;;;;;14.47;2.07;;;3.10;99.90;;;;;;4954948;28;20208;-68
2022/01/20 04:33:49;;;;;;;17.07;2.20;;;3.10;99.90;;;;;;4954740;28;20184;-68
2022/01/20 04:36:15;;;;;;;9.97;1.40;;;3.10;99.90;;;;;;4954971;28;20646;-69
2022/01/20 04:38:41;;;;;;;8.23;1.40;;;3.10;99.90;;;;;;4935952;29;20217;-68
2022/01/20 04:41:07;;;;;;;14.63;1.87;;;3.00;99.90;;;;;;4953584;29;20172;-65
2022/01/20 04:43:33;;;;;;;17.27;1.77;;;3.00;99.90;;;;;;4965196;28;20188;-64
2022/01/20 04:46:09;;;;;;;9.30;1.83;;;3.10;99.90;;;;;;4952003;28;20644;-65
2022/01/20 04:59:23;;;;;;;22.07;2.40;;;3.20;99.90;;;;;;4954662;28;20247;-63
2022/01/20 05:01:49;;;;;;;10.40;1.87;;;3.10;99.90;;;;;;4953774;28;20699;-63
2022/01/20 05:04:15;;;;;;;16.63;1.90;;;3.00;99.90;;;;;;4954248;28;20216;-66
2022/01/20 05:06:43;;;;;;;13.43;1.70;;;3.00;99.90;;;;;;4954224;28;20176;-63
2022/01/20 05:09:16;;;;;;;11.57;1.73;;;3.00;99.90;;;;;;4952119;28;20180;-64
2022/01/20 05:11:46;;;;;;;16.13;2.23;;;2.90;99.90;;;;;;4954197;28;20204;-64
2022/01/20 05:14:12;;;;;;;15.43;2.10;;;2.90;99.90;;;;;;4954057;28;20207;-64
2022/01/20 05:16:38;;;;;;;9.37;1.73;;;2.90;99.90;;;;;;4954232;29;20583;-64
2022/01/20 05:19:03;;;;;;;10.77;1.80;;;2.80;99.90;;;;;;4953915;28;20201;-64
2022/01/20 05:21:29;;;;;;;12.10;2.37;;;2.80;99.90;;;;;;4953807;28;20248;-63
2022/01/20 05:23:55;;;;;;;9.90;1.70;;;2.80;99.90;;;;;;4953987;28;20188;-64
2022/01/20 05:26:21;;;;;;;14.00;1.93;;;2.70;99.90;;;;;;4936584;28;20600;-61
2022/01/20 05:28:47;;;;;;;13.17;1.90;;;2.70;99.90;;;;;;4953786;28;20234;-63
2022/01/20 05:31:12;;;;;;;9.13;2.23;;;2.70;99.90;;;;;;4953657;28;20798;-69
2022/01/20 05:33:38;;;;;;;14.83;2.00;;;2.70;99.90;;;;;;4948269;28;20632;-69
2022/01/20 05:36:04;;;;;;;15.10;2.30;;;2.60;99.90;;;;;;4953407;28;20176;-70
2022/01/20 05:38:30;;;;;;;13.87;2.50;;;2.60;99.90;;;;;;4936288;29;20657;-70
2022/01/20 05:40:56;;;;;;;15.13;2.20;;;2.60;99.90;;;;;;4952528;28;20173;-69
2022/01/20 05:43:22;;;;;;;10.10;1.70;;;2.70;99.90;;;;;;4953302;28;20184;-68
2022/01/20 05:45:48;;;;;;;15.93;2.60;;;2.70;99.90;;;;;;4953214;28;20665;-69
2022/01/20 05:48:16;;;;;;;12.03;2.37;;;2.70;99.90;;;;;;4953511;28;20196;-69
2022/01/20 05:50:44;;;;;;;9.47;2.07;;;2.70;99.90;;;;;;4953032;28;20188;-66
2022/01/20 05:53:10;;;;;;;14.13;2.23;;;2.70;99.90;;;;;;4953364;28;20177;-67
2022/01/20 05:55:37;;;;;;;21.53;2.37;;;2.70;99.90;;;;;;4934490;28;20720;-66
2022/01/20 05:58:05;;;;;;;6.87;1.37;;;2.80;99.90;;;;;;4952306;28;20172;-67
2022/01/20 06:00:33;;;;;;;9.23;1.60;;;2.80;99.90;;;;;;4953310;28;20188;-67
2022/01/20 06:05:44;;;;;;;12.63;2.00;;;2.90;99.90;;;;;;4953180;28;20219;-67
2022/01/20 06:08:10;;;;;;;15.60;2.00;;;2.90;99.90;;;;;;4953204;28;20331;-67
2022/01/20 06:10:37;;;;;;;13.27;2.23;;;2.80;99.90;;;;;;4952931;28;20239;-66
2022/01/20 06:13:03;;;;;;;12.43;1.87;;;2.80;99.90;;;;;;4952394;28;20180;-66
2022/01/20 06:15:30;;;;;;;12.37;1.80;;;2.80;99.90;;;;;;4952791;28;20255;-67
2022/01/20 06:17:55;;;;;;;12.03;2.30;;;2.80;99.90;;;;;;4952981;29;20184;-67
2022/01/20 06:20:21;;;;;;;15.73;1.90;;;2.70;99.90;;;;;;4952670;28;20263;-67
2022/01/20 06:22:47;;;;;;;10.13;1.80;;;2.70;99.90;;;;;;4952435;28;20175;-66
2022/01/20 06:25:13;;;;;;;11.40;2.07;;;2.60;99.90;;;;;;4952715;28;20176;-66
2022/01/20 06:27:39;;;;;;;17.43;2.17;;;2.60;99.90;;;;;;4952540;28;20223;-66
2022/01/20 06:30:06;;;;;;;20.87;2.63;;;2.50;99.90;;;;;;4952690;28;20207;-66
2022/01/20 06:32:33;;;;;;;15.37;2.53;;;2.50;99.90;;;;;;4950512;28;20212;-66
2022/01/20 06:34:59;;;;;;;24.33;2.37;;;2.50;99.90;;;;;;4947941;28;20625;-66
2022/01/20 06:37:25;;;;;;;13.47;2.20;;;2.60;99.90;;;;;;4949947;29;20172;-66
2022/01/20 06:39:50;;;;;;;18.67;2.60;;;2.60;99.90;;;;;;4951713;28;20536;-67
2022/01/20 06:42:16;;;;;;;15.57;2.67;;;2.60;99.90;;;;;;4952382;28;20188;-58
2022/01/20 06:44:43;;;;;;;19.00;3.27;;;2.60;99.90;;;;;;4952186;28;20191;-70
2022/01/20 06:47:10;;;;;;;20.93;3.00;;;2.60;99.90;;;;;;4952046;29;20331;-69
2022/01/20 06:49:36;;;;;;;16.77;3.03;;;2.70;99.90;;;;;;4952345;28;20191;-68
2022/01/20 06:52:02;;;;;;;13.50;2.70;;;2.60;99.90;;;;;;4951079;28;20221;-68
2022/01/20 06:54:28;;;;;;;19.00;3.10;;;2.60;99.90;;;;;;4952353;28;20184;-68
2022/01/20 06:56:54;;;;;;;17.57;3.03;;;2.60;99.90;;;;;;4951774;28;20583;-68
2022/01/20 06:59:20;;;;;;;23.07;3.47;;;2.50;99.90;;;;;;4952330;28;20271;-68
2022/01/20 07:01:48;;;;;;;22.33;2.97;;;2.50;99.90;;;;;;4951995;28;20267;-68
2022/01/20 07:04:15;;;;;;;21.23;2.83;;;2.50;99.90;;;;;;4950827;28;20580;-69
2022/01/20 07:06:41;;;;;;;20.13;3.13;;;2.40;99.90;;;;;;4950909;28;20188;-69
2022/01/20 07:09:08;;;;;;;22.30;3.20;;;2.40;99.90;;;;;;4951294;28;20180;-68
2022/01/20 07:11:35;;;;;;;16.57;3.10;;;2.40;99.90;;;;;;4951036;28;20695;-69
2022/01/20 07:14:01;;;;;;;18.00;3.13;;;2.40;99.90;;;;;;4950400;28;20191;-69
2022/01/20 07:16:28;;;;;;;18.47;3.20;;;2.40;99.90;;;;;;4951386;28;20282;-67
2022/01/20 07:18:55;;;;;;;20.60;3.10;;;2.40;99.90;;;;;;4951692;28;20315;-68
2022/01/20 07:21:21;;;;;;;18.00;3.60;;;2.50;99.90;;;;;;4951942;28;20188;-66
2022/01/20 07:23:48;;;;;;;16.73;3.37;;;2.50;99.90;;;;;;4951160;28;20188;-64
2022/01/20 07:26:14;;;;;;;19.27;3.87;;;2.50;99.90;;;;;;4932223;28;20187;-65
2022/01/20 07:28:40;;;;;;;24.37;4.40;;;2.50;99.90;;;;;;4951618;28;20181;-64
2022/01/20 07:31:06;;;;;;;30.10;4.57;;;2.60;99.90;;;;;;4951924;28;20201;-65
2022/01/20 07:33:32;;;;;;;14.93;3.77;;;2.50;99.90;;;;;;4951323;28;20200;-65
2022/01/20 07:35:58;;;;;;;13.73;4.10;;;2.50;99.90;;;;;;4950953;28;20188;-66
2022/01/20 07:38:24;;;;;;;17.37;4.43;;;2.50;99.90;;;;;;4949968;28;20659;-63
2022/01/20 07:40:51;;;;;;;18.37;4.37;;;2.50;99.90;;;;;;4951382;28;20189;-61
2022/01/20 07:43:17;;;;;;;24.53;4.50;;;2.40;99.90;;;;;;4950546;28;20263;-62
2022/01/20 07:45:43;;;;;;;21.43;3.33;;;2.40;99.90;;;;;;4951117;28;20706;-60
2022/01/20 07:48:08;;;;;;;21.20;3.17;;;2.40;99.90;;;;;;4951492;29;20161;-60
2022/01/20 07:50:34;;;;;;;21.03;3.20;;;2.40;99.90;;;;;;4951536;29;20180;-60
2022/01/20 07:53:00;;;;;;;18.83;3.33;;;2.40;99.90;;;;;;4951919;29;20189;-67
2022/01/20 07:55:26;;;;;;;16.77;2.87;;;2.40;99.90;;;;;;4951456;28;20192;-65
2022/01/20 07:57:52;;;;;;;12.80;2.77;;;2.40;99.90;;;;;;4934041;29;20216;-64
2022/01/20 08:00:18;;;;;;;13.60;3.17;;;2.40;99.90;;;;;;4951477;28;20192;-66
2022/01/20 08:02:45;;;;;;;16.50;2.83;;;2.40;99.90;;;;;;4934292;29;20343;-65
2022/01/20 08:05:11;;;;;;;22.53;3.37;;;2.40;99.90;;;;;;4952326;28;20648;-66
2022/01/20 08:07:37;;;;;;;17.57;3.53;;;2.40;99.90;;;;;;4954900;29;20248;-66
2022/01/20 08:10:04;;;;;;;16.97;4.17;;;2.40;99.90;;;;;;4955205;29;20408;-65
2022/01/20 08:12:30;;;;;;;15.53;4.40;;;2.40;99.90;;;;;;4954887;29;20327;-63
2022/01/20 08:14:58;;;;;;;16.17;3.40;;;2.40;99.90;;;;;;4954744;28;20625;-64
2022/01/20 08:17:24;;;;;;;23.77;3.53;;;2.50;99.90;;;;;;4970249;28;20536;-67
2022/01/20 08:19:50;;;;;;;24.80;3.53;;;2.60;99.90;;;;;;4954847;28;20180;-78
2022/01/20 08:22:16;;;;;;;19.53;3.20;;;2.70;99.90;;;;;;4955106;29;20212;-61
2022/01/20 08:24:42;;;;;;;23.07;3.10;;;2.80;99.90;;;;;;4955145;29;20208;-62
2022/01/20 08:27:10;;;;;;;16.93;2.90;;;2.90;99.90;;;;;;4954355;29;20212;-62
2022/01/20 08:29:36;;;;;;;19.30;3.30;;;3.10;99.90;;;;;;4954855;29;20180;-62
2022/01/20 08:32:04;;;;;;;17.33;2.50;;;3.20;99.90;;;;;;4954905;29;20291;-75
2022/01/20 08:34:30;;;;;;;17.10;3.27;;;3.30;99.90;;;;;;4954974;29;20172;-75
2022/01/20 08:36:56;;;;;;;18.10;3.23;;;3.40;99.90;;;;;;4953959;28;20220;-78
2022/01/20 08:41:58;;;;;;;39.97;15.27;;;3.80;99.90;;;;;;4954448;28;20181;-77
2022/01/20 08:44:24;;;;;;;42.50;13.97;;;4.20;99.90;;;;;;4949506;28;20184;-73
2022/01/20 08:46:52;;;;;;;38.40;15.57;;;4.00;99.90;;;;;;4937129;28;20202;-67
2022/01/20 08:49:18;;;;;;;28.00;12.03;;;3.90;99.90;;;;;;4951971;28;20235;-68
2022/01/20 08:51:44;;;;;;;36.67;13.17;;;3.90;99.90;;;;;;4953856;29;20311;-68
2022/01/20 08:54:10;;;;;;;31.33;11.03;;;4.00;99.90;;;;;;4954510;29;20195;-68
2022/01/20 08:56:36;;;;;;;24.60;5.73;;;4.00;99.90;;;;;;4953726;28;20221;-68
2022/01/20 08:59:06;;;;;;;29.00;5.83;;;4.10;99.90;;;;;;4953604;28;20646;-68
2022/01/20 09:01:38;;;;;;;24.60;4.50;;;4.20;99.90;;;;;;4950986;28;20259;-68
2022/01/20 09:04:05;;;;;;;18.10;4.53;;;4.20;99.90;;;;;;4954313;29;20173;-62
2022/01/20 09:06:31;;;;;;;26.23;7.27;;;4.20;99.90;;;;;;4953884;29;20272;-72
2022/01/20 09:08:57;;;;;;;25.10;6.83;;;4.30;99.90;;;;;;4952329;28;20235;-73
2022/01/20 09:11:30;;;;;;;21.30;5.37;;;4.30;99.90;;;;;;4953993;29;20216;-74
2022/01/20 09:16:42;;;;;;;16.90;4.10;;;5.20;99.90;;;;;;4951412;28;20623;-66
2022/01/20 09:19:08;;;;;;;18.20;3.97;;;5.80;99.90;;;;;;4958987;28;20171;-67
2022/01/20 09:21:33;;;;;;;18.53;4.17;;;6.20;99.90;;;;;;4969244;28;20192;-67
2022/01/20 09:23:59;;;;;;;19.10;3.67;;;6.60;99.90;;;;;;4954104;29;20254;-67
2022/01/20 09:26:25;;;;;;;15.47;3.33;;;7.50;99.90;;;;;;4954246;29;20264;-68
2022/01/20 09:28:51;;;;;;;15.60;2.97;;;8.50;99.90;;;;;;4954227;29;20202;-67
2022/01/20 09:31:23;;;;;;;18.30;3.20;;;8.40;99.90;;;;;;4954105;29;20260;-67
2022/01/20 09:33:49;;;;;;;14.37;2.53;;;9.00;99.90;;;;;;4953988;29;20204;-72
2022/01/20 09:36:15;;;;;;;20.10;3.17;;;10.20;99.90;;;;;;4953811;29;20165;-70
2022/01/20 09:38:42;;;;;;;16.67;3.17;;;9.80;99.90;;;;;;4953954;29;20177;-69
2022/01/20 09:41:08;;;;;;;12.10;3.00;;;9.50;99.90;;;;;;4936691;29;20545;-68
2022/01/20 09:43:35;;;;;;;13.87;2.93;;;9.40;99.90;;;;;;4953542;29;20192;-69
2022/01/20 09:46:02;;;;;;;13.70;2.70;;;9.80;99.90;;;;;;4953939;29;20560;-69
2022/01/20 09:48:29;;;;;;;16.27;3.30;;;10.00;99.90;;;;;;4951766;28;20188;-70
2022/01/20 09:50:56;;;;;;;12.23;2.40;;;9.70;99.90;;;;;;4953012;29;20315;-69
2022/01/20 09:53:23;;;;;;;18.27;3.23;;;9.30;99.90;;;;;;4953563;29;20184;-69
2022/01/20 09:55:49;;;;;;;11.97;2.50;;;8.90;99.90;;;;;;4948534;28;20187;-69
2022/01/20 09:58:15;;;;;;;21.10;3.23;;;8.70;99.90;;;;;;4952346;29;20177;-69
2022/01/20 10:00:43;;;;;;;11.60;2.97;;;9.00;99.90;;;;;;4953428;29;20255;-69
2022/01/20 10:03:13;;;;;;;12.77;2.77;;;9.00;99.90;;;;;;4940469;29;20185;-69
2022/01/20 10:05:51;;;;;;;19.60;3.37;;;8.70;99.90;;;;;;4940063;29;20195;-69
2022/01/20 10:08:23;;;;;;;15.40;3.80;;;8.50;99.90;;;;;;4935519;29;20240;-68
2022/01/20 10:11:00;;;;;;;16.37;4.07;;;8.30;99.90;;;;;;4967565;28;20192;-68
2022/01/20 10:13:31;;;;;;;19.50;3.20;;;8.50;99.90;;;;;;4952718;29;20230;-68
2022/01/20 10:16:06;;;;;;;9.57;2.50;;;8.50;99.90;;;;;;4953229;28;20172;-68
2022/01/20 10:18:34;;;;;;;20.00;2.63;;;8.40;99.90;;;;;;4952938;28;20172;-68
2022/01/20 10:21:02;;;;;;;19.63;2.77;;;8.30;99.90;;;;;;4951774;28;20195;-68
2022/01/20 10:23:37;;;;;;;21.17;3.27;;;8.20;99.90;;;;;;4952308;29;20251;-68
2022/01/20 10:26:24;;;;;;;21.57;3.50;;;8.20;99.90;;;;;;4951588;29;20168;-68
2022/01/20 10:29:00;;;;;;;21.10;3.40;;;8.30;99.90;;;;;;4950830;28;20176;-68
2022/01/20 10:31:38;;;;;;;20.60;3.40;;;8.30;99.90;;;;;;4948775;28;20224;-69
2022/01/20 10:34:30;;;;;;;19.80;3.30;;;8.30;99.90;;;;;;4951252;29;20172;-68
2022/01/20 10:36:59;;;;;;;20.83;3.50;;;8.60;99.90;;;;;;4951230;29;20180;-68
2022/01/20 10:39:28;;;;;;;16.13;3.67;;;8.70;99.90;;;;;;4951676;29;20184;-68
2022/01/20 10:42:24;;;;;;;22.07;3.57;;;8.80;99.90;;;;;;4952232;29;20168;-68
2022/01/20 10:44:55;;;;;;;15.13;3.07;;;8.90;99.90;;;;;;4932002;29;20197;-68
2022/01/20 10:47:29;;;;;;;19.07;3.60;;;9.00;99.90;;;;;;4952201;29;20690;-67
2022/01/20 10:50:07;;;;;;;16.83;2.97;;;9.00;99.90;;;;;;4967169;28;20196;-67
2022/01/20 10:52:37;;;;;;;26.10;4.20;;;8.80;99.90;;;;;;4952498;28;20274;-67
2022/01/20 10:55:06;;;;;;;15.00;2.67;;;8.80;99.90;;;;;;4949282;28;20169;-69
2022/01/20 10:57:34;;;;;;;20.63;3.40;;;8.80;99.90;;;;;;4952026;29;20247;-70
2022/01/20 11:00:11;;;;;;;25.83;3.67;;;9.10;99.90;;;;;;4952302;29;20177;-69
2022/01/20 11:02:37;;;;;;;18.13;3.40;;;9.20;99.90;;;;;;4952129;29;20183;-70
2022/01/20 11:05:04;;;;;;;26.93;3.77;;;9.30;99.90;;;;;;4952165;29;20172;-70
2022/01/20 11:07:30;;;;;;;12.17;2.80;;;10.30;99.90;;;;;;4967171;28;20192;-70
2022/01/20 11:10:01;;;;;;;22.37;3.80;;;12.30;99.90;;;;;;4952279;29;20172;-70
2022/01/20 11:12:28;;;;;;;20.23;3.77;;;11.70;99.90;;;;;;4952205;29;20216;-71
2022/01/20 11:14:56;;;;;;;14.15;3.30;;;13.10;99.90;;;;;;4951804;29;20169;-70
2022/01/20 11:17:24;;;;;;;15.48;3.38;;;13.40;99.90;;;;;;4952203;29;20670;-70
2022/01/20 11:19:52;;;;;;;21.70;3.67;;;13.70;99.90;;;;;;4952019;29;20215;-70
2022/01/20 11:22:19;;;;;;;15.43;3.53;;;14.40;99.90;;;;;;4952295;29;20622;-70
2022/01/20 11:24:57;;;;;;;15.73;3.38;;;14.30;99.90;;;;;;4934875;29;20635;-70
2022/01/20 11:27:40;;;;;;;14.48;3.47;;;14.20;99.90;;;;;;4949382;28;20211;-70
2022/01/20 11:30:18;;;;;;;16.55;3.65;;;13.70;99.90;;;;;;4952239;29;20270;-71
2022/01/20 11:32:56;;;;;;;17.02;3.40;;;15.30;99.90;;;;;;4952163;29;20251;-70
2022/01/20 11:35:22;;;;;;;19.08;3.70;;;15.70;99.90;;;;;;4951918;29;20243;-70
2022/01/20 11:37:58;;;;;;;17.45;3.58;;;15.00;99.90;;;;;;4951920;29;20181;-70
2022/01/20 11:40:25;;;;;;;19.20;3.67;;;16.60;99.90;;;;;;4954469;28;20172;-70
2022/01/20 11:42:59;;;;;;;15.25;3.33;;;18.20;99.90;;;;;;4955698;29;20180;-70
2022/01/20 11:45:36;;;;;;;13.88;3.47;;;19.70;99.90;;;;;;4956162;28;20168;-71
2022/01/20 11:48:34;;;;;;;12.23;3.05;;;20.30;99.90;;;;;;4952546;28;20180;-71
2022/01/20 11:51:08;;;;;;;15.15;3.10;;;20.70;99.90;;;;;;4888255;29;20216;-71
2022/01/20 11:53:41;;;;;;;16.17;3.03;;;20.00;99.90;;;;;;4945678;28;20188;-71
2022/01/20 11:56:09;;;;;;;14.40;3.50;;;21.20;99.90;;;;;;4955119;28;20208;-71
2022/01/20 11:58:35;;;;;;;13.57;4.70;;;21.60;99.90;;;;;;4955609;29;20266;-68
2022/01/20 12:01:04;;;;;;;14.75;2.83;;;21.10;99.90;;;;;;4954380;29;20188;-70
2022/01/20 12:03:32;;;;;;;10.02;3.05;;;21.00;99.90;;;;;;4955680;29;20169;-70
2022/01/20 12:05:59;;;;;;;13.10;2.45;;;21.60;99.90;;;;;;4954302;29;20276;-70
2022/01/20 12:08:25;;;;;;;16.67;2.95;;;19.80;99.80;;;;;;4955285;29;20195;-70
2022/01/20 12:11:04;;;;;;;6.05;2.00;;;20.80;99.90;;;;;;4955239;29;20185;-71
2022/01/20 12:13:33;;;;;;;9.82;2.38;;;21.00;99.90;;;;;;4953745;29;20203;-71
2022/01/20 12:16:02;;;;;;;10.75;2.20;;;21.00;99.30;;;;;;4955288;29;20173;-70
2022/01/20 12:18:29;;;;;;;12.15;2.70;;;20.00;99.40;;;;;;4954992;29;20199;-70
2022/01/20 12:20:58;;;;;;;9.40;2.30;;;19.70;99.90;;;;;;4955172;29;20201;-70
2022/01/20 12:23:25;;;;;;;13.38;2.75;;;19.60;99.90;;;;;;4955170;29;20533;-70
2022/01/20 12:25:51;;;;;;;11.25;2.20;;;19.90;99.90;;;;;;4954954;29;20227;-70
2022/01/20 12:28:17;;;;;;;14.65;2.95;;;19.90;99.90;;;;;;4954811;29;20180;-70
2022/01/20 12:30:48;;;;;;;13.65;2.88;;;20.70;99.90;;;;;;4954974;29;20177;-70
2022/01/20 12:33:15;;;;;;;12.02;2.63;;;19.60;99.90;;;;;;4955192;29;20180;-70
2022/01/20 12:35:48;;;;;;;14.95;3.05;;;20.10;99.90;;;;;;4954538;29;20187;-70
2022/01/20 12:38:20;;;;;;;10.63;3.08;;;19.30;99.90;;;;;;4955053;29;20240;-69
2022/01/20 12:40:48;;;;;;;15.65;3.35;;;16.70;99.90;;;;;;4935319;29;20195;-70
2022/01/20 12:43:14;;;;;;;11.27;2.40;;;15.30;99.90;;;;;;4940390;28;20187;-70
2022/01/20 12:45:56;;;;;;;17.83;3.42;;;14.40;99.90;;;;;;4974201;28;20179;-70
2022/01/20 12:48:22;;;;;;;12.43;3.15;;;17.30;99.90;;;;;;4954732;28;20177;-70
2022/01/20 12:51:09;;;;;;;16.67;2.95;;;18.10;99.90;;;;;;4952669;28;20181;-70
2022/01/20 12:53:40;;;;;;;16.63;3.28;;;18.70;99.90;;;;;;4937378;29;20259;-70
2022/01/20 12:56:11;;;;;;;19.42;2.88;;;19.70;99.90;;;;;;4954157;29;20223;-70
2022/01/20 12:58:51;;;;;;;15.05;3.13;;;19.00;99.90;;;;;;4954439;29;20181;-70
2022/01/20 13:01:19;;;;;;;15.57;3.25;;;20.20;99.90;;;;;;4954403;29;20220;-68
2022/01/20 13:03:45;;;;;;;10.05;3.00;;;19.30;99.90;;;;;;4953738;29;20679;-69
2022/01/20 13:06:25;;;;;;;10.23;2.53;;;19.60;99.90;;;;;;4954542;29;20302;-68
2022/01/20 13:08:58;;;;;;;16.17;3.45;;;19.10;99.90;;;;;;4954347;29;20204;-70
2022/01/20 13:11:41;;;;;;;14.00;2.60;;;19.30;99.90;;;;;;4936665;29;20214;-70
2022/01/20 13:14:08;;;;;;;18.95;3.40;;;19.60;99.90;;;;;;4954166;29;20185;-66
2022/01/20 13:16:34;;;;;;;11.85;3.17;;;17.50;99.90;;;;;;4954508;29;20804;-67
2022/01/20 13:19:04;;;;;;;14.27;3.15;;;16.20;99.90;;;;;;4953510;28;20192;-66
2022/01/20 13:21:39;;;;;;;13.48;3.17;;;14.80;99.90;;;;;;4953784;28;20192;-69
2022/01/20 13:24:07;;;;;;;22.65;3.28;;;14.90;99.90;;;;;;4953610;28;20180;-70
2022/01/20 13:26:44;;;;;;;19.17;3.20;;;14.10;99.90;;;;;;4950157;28;20179;-70
2022/01/20 13:29:10;;;;;;;17.67;3.45;;;14.00;99.90;;;;;;4953881;28;20263;-70
2022/01/20 13:31:36;;;;;;;12.55;2.95;;;14.10;99.90;;;;;;4970875;28;20698;-70
2022/01/20 13:34:18;;;;;;;18.60;3.22;;;13.40;99.90;;;;;;4952929;28;20223;-69
2022/01/20 13:36:53;;;;;;;15.73;3.40;;;12.60;99.90;;;;;;4944243;28;20192;-71
2022/01/20 13:39:37;;;;;;;11.57;2.70;;;11.80;99.90;;;;;;4953936;29;20263;-69
2022/01/20 13:45:03;;;;;;;15.23;2.88;;;10.20;99.90;;;;;;4947959;28;20216;-68
2022/01/20 13:47:29;;;;;;;15.55;2.97;;;9.80;99.90;;;;;;4953617;29;20265;-68
2022/01/20 13:49:56;;;;;;;13.87;3.30;;;9.50;99.90;;;;;;4953469;28;20718;-69
2022/01/20 13:52:22;;;;;;;17.33;2.70;;;9.40;99.90;;;;;;4938468;29;20212;-69
2022/01/20 13:54:54;;;;;;;14.37;2.93;;;9.40;99.90;;;;;;4936213;29;20184;-68
2022/01/20 13:57:20;;;;;;;17.90;3.10;;;11.10;99.90;;;;;;4953592;29;20223;-68
2022/01/20 13:59:49;;;;;;;16.97;3.03;;;11.80;99.90;;;;;;4953565;29;20173;-69
2022/01/20 14:02:14;;;;;;;15.23;2.78;;;12.70;99.90;;;;;;4952546;28;20602;-69